createdAt,value
2022-08-03T00:02:18.974Z,3.93
2022-08-03T00:04:47.310Z,4.63
2022-08-03T00:07:17.134Z,3.40
2022-08-03T00:09:45.700Z,3.97
2022-08-03T00:12:14.364Z,4.13
2022-08-03T00:14:42.866Z,3.80
2022-08-03T00:17:11.782Z,3.70
2022-08-03T00:19:39.979Z,3.73
2022-08-03T00:22:08.217Z,3.80
2022-08-03T00:24:37.734Z,3.97
2022-08-03T00:27:06.036Z,3.70
2022-08-03T00:29:34.236Z,4.10
2022-08-03T00:32:22.573Z,4.10
2022-08-03T00:34:57.723Z,4.23
2022-08-03T00:37:40.610Z,3.70
2022-08-03T00:40:13.599Z,3.37
2022-08-03T00:42:50.583Z,3.80
2022-08-03T00:45:19.794Z,3.67
2022-08-03T00:47:48.100Z,4.60
2022-08-03T00:50:17.742Z,4.20
2022-08-03T00:52:46.528Z,3.37
2022-08-03T00:55:16.667Z,3.50
2022-08-03T00:57:45.395Z,3.37
2022-08-03T01:00:16.711Z,3.10
2022-08-03T01:02:45.327Z,2.97
2022-08-03T01:05:13.822Z,2.90
2022-08-03T01:08:01.440Z,3.00
2022-08-03T01:10:47.502Z,3.07
2022-08-03T01:14:02.354Z,2.80
2022-08-03T01:16:35.861Z,2.70
2022-08-03T01:19:26.021Z,2.57
2022-08-03T01:22:10.379Z,2.93
2022-08-03T01:24:51.853Z,2.47
2022-08-03T01:27:27.853Z,2.43
2022-08-03T01:30:07.828Z,2.50
2022-08-03T01:32:59.421Z,2.57
2022-08-03T01:35:38.834Z,2.83
2022-08-03T01:38:13.370Z,2.10
2022-08-03T01:40:44.521Z,2.10
2022-08-03T01:44:26.828Z,2.40
2022-08-03T01:46:09.922Z,2.47
2022-08-03T01:48:39.470Z,2.33
2022-08-03T01:51:09.416Z,2.27
2022-08-03T01:53:39.971Z,2.07
2022-08-03T01:56:08.761Z,2.27
2022-08-03T01:58:38.837Z,2.07
2022-08-03T02:01:11.033Z,2.00
2022-08-03T02:03:59.820Z,2.07
2022-08-03T02:07:01.891Z,2.13
2022-08-03T02:09:23.638Z,2.27
2022-08-03T02:11:53.419Z,2.13
2022-08-03T02:14:22.590Z,2.20
2022-08-03T02:16:53.055Z,2.37
2022-08-03T02:19:21.814Z,2.10
2022-08-03T02:21:57.372Z,2.57
2022-08-03T02:24:30.513Z,2.60
2022-08-03T02:27:00.519Z,3.10
2022-08-03T02:29:39.177Z,3.00
2022-08-03T02:32:20.576Z,3.50
2022-08-03T02:34:53.130Z,3.47
2022-08-03T02:37:27.041Z,3.20
2022-08-03T02:40:00.216Z,3.50
2022-08-03T02:42:30.018Z,3.07
2022-08-03T02:45:01.533Z,3.30
2022-08-03T02:47:53.636Z,3.53
2022-08-03T02:50:21.490Z,3.70
2022-08-03T02:52:52.478Z,3.23
2022-08-03T02:55:22.434Z,3.30
2022-08-03T02:57:52.489Z,3.40
2022-08-03T03:00:27.642Z,3.20
2022-08-03T03:02:59.604Z,3.40
2022-08-03T03:05:52.534Z,3.20
2022-08-03T03:08:26.756Z,3.00
2022-08-03T03:10:58.225Z,3.10
2022-08-03T03:13:28.186Z,3.07
2022-08-03T03:16:01.459Z,3.23
2022-08-03T03:18:33.473Z,3.43
2022-08-03T03:21:04.059Z,3.57
2022-08-03T03:23:34.137Z,3.30
2022-08-03T03:26:02.981Z,3.20
2022-08-03T03:28:33.070Z,3.40
2022-08-03T03:31:01.907Z,3.53
2022-08-03T03:33:32.918Z,3.50
2022-08-03T03:36:01.403Z,3.20
2022-08-03T03:38:30.283Z,3.27
2022-08-03T03:40:58.524Z,3.33
2022-08-03T03:43:26.859Z,3.33
2022-08-03T03:45:56.037Z,3.87
2022-08-03T03:48:25.409Z,3.30
2022-08-03T03:50:57.299Z,3.17
2022-08-03T03:53:25.980Z,3.27
2022-08-03T03:55:59.774Z,3.87
2022-08-03T03:58:31.807Z,3.43
2022-08-03T04:01:00.371Z,3.47
2022-08-03T04:03:28.789Z,3.47
2022-08-03T04:06:16.945Z,3.23
2022-08-03T04:09:14.203Z,3.47
2022-08-03T04:11:50.266Z,4.30
2022-08-03T04:14:25.488Z,4.03
2022-08-03T04:16:58.421Z,4.10
2022-08-03T04:19:33.011Z,3.87
2022-08-03T04:22:08.225Z,4.37
2022-08-03T04:24:43.496Z,4.00
2022-08-03T04:27:16.627Z,4.20
2022-08-03T04:29:49.054Z,4.53
2022-08-03T04:32:18.523Z,3.90
2022-08-03T04:34:47.233Z,4.03
2022-08-03T04:37:28.106Z,4.47
2022-08-03T04:40:01.506Z,4.40
2022-08-03T04:42:32.539Z,4.33
2022-08-03T04:45:01.943Z,4.33
2022-08-03T04:47:32.331Z,4.10
2022-08-03T04:50:02.638Z,4.13
2022-08-03T04:52:32.543Z,4.10
2022-08-03T04:55:00.747Z,3.93
2022-08-03T04:57:28.892Z,3.47
2022-08-03T05:00:02.529Z,3.60
2022-08-03T05:02:32.196Z,3.63
2022-08-03T05:05:00.885Z,3.90
2022-08-03T05:07:34.133Z,3.37
2022-08-03T05:10:16.470Z,3.60
2022-08-03T05:12:46.656Z,3.83
2022-08-03T05:15:15.928Z,4.50
2022-08-03T05:17:44.177Z,4.07
2022-08-03T05:20:13.065Z,4.90
2022-08-03T05:22:41.234Z,3.90
2022-08-03T05:25:17.285Z,3.77
2022-08-03T05:27:48.896Z,3.57
2022-08-03T05:30:30.451Z,3.40
2022-08-03T05:33:03.925Z,4.23
2022-08-03T05:35:55.651Z,4.00
2022-08-03T05:38:24.239Z,5.17
2022-08-03T05:41:21.856Z,3.47
2022-08-03T05:43:47.872Z,3.30
2022-08-03T05:46:16.637Z,3.30
2022-08-03T05:48:45.081Z,3.70
2022-08-03T05:51:14.174Z,3.53
2022-08-03T05:53:43.558Z,3.57
2022-08-03T05:56:16.349Z,3.67
2022-08-03T05:58:46.636Z,3.10
2022-08-03T06:01:15.219Z,3.60
2022-08-03T06:03:43.598Z,3.30
2022-08-03T06:06:12.179Z,3.37
2022-08-03T06:08:41.099Z,4.00
2022-08-03T06:11:09.825Z,3.50
2022-08-03T06:13:40.124Z,3.53
2022-08-03T06:16:08.425Z,3.87
2022-08-03T06:18:37.179Z,3.23
2022-08-03T06:21:14.565Z,3.60
2022-08-03T06:23:54.109Z,3.93
2022-08-03T06:26:25.366Z,3.40
2022-08-03T06:28:56.070Z,3.30
2022-08-03T06:31:32.444Z,3.47
2022-08-03T06:34:32.353Z,3.77
2022-08-03T06:36:58.630Z,3.70
2022-08-03T06:39:30.453Z,3.60
2022-08-03T06:41:59.061Z,4.17
2022-08-03T06:44:28.782Z,2.97
2022-08-03T06:46:56.964Z,3.80
2022-08-03T06:49:25.365Z,3.80
2022-08-03T06:52:03.376Z,3.67
2022-08-03T06:54:36.119Z,3.50
2022-08-03T06:57:05.917Z,3.60
2022-08-03T07:00:07.737Z,3.23
2022-08-03T07:02:23.889Z,3.80
2022-08-03T07:04:56.458Z,3.20
2022-08-03T07:07:24.629Z,4.53
2022-08-03T07:09:56.989Z,4.03
2022-08-03T07:12:30.711Z,3.90
2022-08-03T07:15:03.200Z,3.60
2022-08-03T07:17:34.117Z,3.42
2022-08-03T07:20:05.255Z,3.15
2022-08-03T07:22:33.561Z,3.75
2022-08-03T07:25:02.387Z,4.13
2022-08-03T07:27:31.111Z,3.25
2022-08-03T07:30:00.971Z,3.43
2022-08-03T07:32:31.602Z,3.15
2022-08-03T07:35:01.587Z,3.47
2022-08-03T07:37:31.110Z,3.75
2022-08-03T07:39:59.602Z,3.53
2022-08-03T07:42:27.933Z,3.13
2022-08-03T07:44:56.824Z,3.92
2022-08-03T07:47:35.746Z,3.70
2022-08-03T07:50:06.614Z,3.33
2022-08-03T07:52:49.480Z,3.00
2022-08-03T07:55:19.126Z,3.15
2022-08-03T07:57:47.759Z,3.08
2022-08-03T08:00:19.381Z,3.30
2022-08-03T08:02:48.940Z,3.00
2022-08-03T08:05:17.056Z,2.97
2022-08-03T08:07:51.336Z,3.08
2022-08-03T08:10:20.237Z,3.20
2022-08-03T08:12:48.523Z,3.13
2022-08-03T08:15:16.740Z,3.33
2022-08-03T08:17:48.724Z,3.40
2022-08-03T08:20:28.025Z,3.70
2022-08-03T08:22:58.469Z,2.67
2022-08-03T08:25:30.855Z,3.35
2022-08-03T08:28:31.106Z,2.72
2022-08-03T08:30:51.332Z,3.00
2022-08-03T08:33:23.111Z,2.70
2022-08-03T08:35:53.438Z,2.80
2022-08-03T08:38:21.939Z,2.65
2022-08-03T08:40:51.203Z,2.85
2022-08-03T08:43:19.340Z,2.67
2022-08-03T08:45:50.643Z,2.60
2022-08-03T08:48:24.610Z,3.00
2022-08-03T08:50:55.214Z,3.00
2022-08-03T08:53:27.165Z,3.00
2022-08-03T08:56:01.311Z,3.15
2022-08-03T08:58:36.003Z,2.90
2022-08-03T09:01:04.718Z,2.85
2022-08-03T09:03:36.137Z,2.70
2022-08-03T09:06:06.833Z,2.83
2022-08-03T09:08:35.661Z,3.22
2022-08-03T09:11:12.202Z,2.78
2022-08-03T09:13:40.868Z,3.00
2022-08-03T09:16:15.653Z,3.20
2022-08-03T09:18:48.570Z,3.30
2022-08-03T09:21:38.036Z,3.03
2022-08-03T09:24:16.430Z,2.83
2022-08-03T09:26:54.232Z,2.75
2022-08-03T09:29:23.700Z,2.83
2022-08-03T09:32:03.258Z,2.97
2022-08-03T09:34:32.923Z,2.88
2022-08-03T09:37:01.074Z,2.47
2022-08-03T09:39:41.180Z,3.58
2022-08-03T09:42:14.710Z,3.03
2022-08-03T09:44:48.692Z,3.95
2022-08-03T09:47:29.351Z,3.10
2022-08-03T09:50:04.024Z,3.00
2022-08-03T09:52:39.125Z,2.90
2022-08-03T09:56:31.649Z,3.67
2022-08-03T09:58:10.448Z,3.22
2022-08-03T10:00:55.707Z,2.97
2022-08-03T10:03:25.408Z,2.80
2022-08-03T10:05:59.531Z,2.85
2022-08-03T10:08:28.354Z,2.78
2022-08-03T10:11:00.510Z,3.03
2022-08-03T10:13:28.966Z,3.50
2022-08-03T10:16:21.916Z,2.88
2022-08-03T10:18:45.239Z,2.80
2022-08-03T10:21:20.946Z,3.40
2022-08-03T10:23:49.792Z,3.05
2022-08-03T10:26:25.886Z,3.10
2022-08-03T10:28:55.909Z,3.10
2022-08-03T10:31:25.132Z,3.25
2022-08-03T10:33:57.392Z,3.00
2022-08-03T10:36:33.152Z,3.08
2022-08-03T10:39:02.682Z,2.95
2022-08-03T10:41:38.289Z,2.90
2022-08-03T10:44:10.787Z,3.05
2022-08-03T10:46:44.741Z,2.90
2022-08-03T10:49:15.714Z,3.20
2022-08-03T10:51:47.526Z,3.08
2022-08-03T10:54:58.895Z,3.30
2022-08-03T10:57:49.848Z,3.22
2022-08-03T11:00:20.098Z,3.00
2022-08-03T11:03:11.572Z,3.83
2022-08-03T11:05:43.414Z,3.65
2022-08-03T11:08:35.758Z,3.45
2022-08-03T11:11:28.453Z,2.78
2022-08-03T11:14:03.245Z,3.17
2022-08-03T11:16:34.988Z,3.22
2022-08-03T11:19:05.505Z,2.97
2022-08-03T11:21:59.464Z,3.42
2022-08-03T11:25:03.118Z,3.40
2022-08-03T11:27:33.789Z,3.72
2022-08-03T11:30:07.006Z,3.60
2022-08-03T11:32:58.259Z,3.13
2022-08-03T11:35:30.092Z,3.25
2022-08-03T11:38:24.534Z,2.95
2022-08-03T11:40:55.680Z,3.25
2022-08-03T11:43:54.132Z,2.83
2022-08-03T11:46:29.368Z,3.15
2022-08-03T11:49:10.733Z,3.15
2022-08-03T11:51:40.359Z,4.22
2022-08-03T11:54:09.205Z,3.47
2022-08-03T11:56:49.975Z,3.40
2022-08-03T11:59:22.182Z,2.83
2022-08-03T12:01:50.860Z,2.97
2022-08-03T12:04:19.232Z,3.42
2022-08-03T12:07:00.941Z,3.50
2022-08-03T12:09:29.170Z,3.22
2022-08-03T12:12:00.621Z,3.42
2022-08-03T12:14:50.337Z,3.33
2022-08-03T12:17:19.396Z,3.05
2022-08-03T12:19:47.960Z,3.13
2022-08-03T12:22:17.076Z,2.40
2022-08-03T12:24:47.081Z,2.72
2022-08-03T12:27:26.504Z,2.80
2022-08-03T12:29:58.177Z,2.90
2022-08-03T12:32:28.270Z,2.50
2022-08-03T12:35:00.103Z,2.63
2022-08-03T12:37:29.514Z,2.58
2022-08-03T12:40:09.475Z,2.65
2022-08-03T12:42:41.517Z,3.15
2022-08-03T12:45:31.846Z,2.78
2022-08-03T12:48:02.494Z,2.75
2022-08-03T12:50:32.888Z,2.97
2022-08-03T12:53:04.575Z,2.78
2022-08-03T12:55:57.433Z,2.83
2022-08-03T12:58:34.940Z,2.92
2022-08-03T13:01:10.025Z,2.85
2022-08-03T13:03:49.571Z,3.05
2022-08-03T13:06:20.698Z,2.40
2022-08-03T13:08:49.348Z,2.42
2022-08-03T13:11:53.521Z,2.67
2022-08-03T13:14:19.583Z,1.95
2022-08-03T13:16:49.257Z,2.20
2022-08-03T13:19:17.501Z,1.90
2022-08-03T13:21:53.813Z,1.73
2022-08-03T13:24:35.303Z,1.90
2022-08-03T13:28:01.404Z,1.80
2022-08-03T13:29:56.959Z,1.90
2022-08-03T13:32:25.528Z,1.90
2022-08-03T13:34:53.801Z,1.98
2022-08-03T13:37:22.263Z,2.00
2022-08-03T13:39:59.482Z,1.60
2022-08-03T13:42:30.766Z,1.70
2022-08-03T13:45:01.403Z,1.63
2022-08-03T13:47:29.873Z,1.85
2022-08-03T13:50:01.048Z,2.15
2022-08-03T13:52:33.215Z,2.00
2022-08-03T13:55:01.687Z,1.67
2022-08-03T13:58:04.669Z,1.77
2022-08-03T14:00:28.232Z,1.90
2022-08-03T14:03:09.061Z,1.70
2022-08-03T14:05:41.862Z,1.90
2022-08-03T14:08:10.362Z,1.63
2022-08-03T14:10:42.341Z,1.90
2022-08-03T14:13:12.477Z,2.30
2022-08-03T14:15:42.179Z,2.30
2022-08-03T14:18:28.457Z,1.85
2022-08-03T14:21:03.452Z,1.90
2022-08-03T14:23:33.872Z,2.20
2022-08-03T14:26:02.041Z,1.90
2022-08-03T14:28:30.220Z,2.13
2022-08-03T14:30:59.873Z,2.05
2022-08-03T14:33:29.480Z,2.17
2022-08-03T14:36:00.519Z,2.30
2022-08-03T14:38:28.805Z,2.30
2022-08-03T14:40:57.779Z,2.33
2022-08-03T14:43:26.158Z,2.55
2022-08-03T14:46:03.841Z,2.08
2022-08-03T14:50:31.467Z,2.40
2022-08-03T14:51:20.457Z,2.15
2022-08-03T14:53:48.658Z,2.33
2022-08-03T14:56:18.536Z,2.40
2022-08-03T14:59:07.534Z,2.08
2022-08-03T15:02:04.342Z,2.25
2022-08-03T15:04:29.575Z,2.60
2022-08-03T15:08:32.076Z,2.50
2022-08-03T15:11:00.296Z,1.83
2022-08-03T15:13:28.630Z,2.28
2022-08-03T15:15:57.678Z,2.22
2022-08-03T15:18:27.190Z,2.58
2022-08-03T15:20:55.363Z,3.00
2022-08-03T15:23:23.604Z,2.50
2022-08-03T15:26:28.462Z,2.10
2022-08-03T15:28:40.224Z,2.00
2022-08-03T15:31:08.882Z,2.10
2022-08-03T15:34:04.492Z,2.33
2022-08-03T15:36:33.868Z,2.20
2022-08-03T15:39:02.275Z,2.55
2022-08-03T15:41:56.641Z,2.10
2022-08-03T15:44:24.840Z,2.30
2022-08-03T15:46:55.743Z,2.08
2022-08-03T15:49:25.305Z,2.15
2022-08-03T15:51:53.565Z,2.20
2022-08-03T15:54:21.713Z,2.10
2022-08-03T15:56:49.848Z,2.28
2022-08-03T15:59:19.642Z,2.20
2022-08-03T16:01:48.668Z,2.20
2022-08-03T16:04:17.371Z,2.45
2022-08-03T16:06:46.912Z,2.42
2022-08-03T16:09:23.537Z,2.97
2022-08-03T16:12:03.794Z,2.15
2022-08-03T16:14:38.951Z,2.20
2022-08-03T16:17:15.062Z,2.80
2022-08-03T16:19:43.223Z,2.60
2022-08-03T16:22:14.547Z,2.45
2022-08-03T16:24:42.945Z,3.05
2022-08-03T16:27:22.170Z,3.08
2022-08-03T16:30:00.968Z,2.95
2022-08-03T16:32:29.093Z,2.50
2022-08-03T16:34:57.237Z,2.88
2022-08-03T16:37:56.278Z,2.72
2022-08-03T16:40:17.316Z,2.60
2022-08-03T16:42:47.994Z,3.40
2022-08-03T16:45:16.301Z,3.05
2022-08-03T16:47:44.459Z,3.13
2022-08-03T16:50:17.454Z,2.78
2022-08-03T16:52:49.165Z,2.78
2022-08-03T16:55:18.534Z,2.80
2022-08-03T16:58:06.801Z,2.65
2022-08-03T17:00:41.337Z,2.90
2022-08-03T17:03:16.409Z,2.78
2022-08-03T17:05:48.206Z,3.35
2022-08-03T17:08:27.183Z,2.42
2022-08-03T17:10:56.841Z,2.65
2022-08-03T17:13:38.940Z,2.63
2022-08-03T17:16:12.022Z,2.67
2022-08-03T17:18:54.231Z,2.63
2022-08-03T17:21:30.846Z,2.38
2022-08-03T17:24:14.514Z,2.35
2022-08-03T17:26:51.126Z,2.65
2022-08-03T17:29:22.953Z,2.10
2022-08-03T17:31:54.533Z,1.98
2022-08-03T17:34:26.322Z,1.83
2022-08-03T17:37:05.679Z,2.10
2022-08-03T17:39:57.792Z,1.83
2022-08-03T17:42:29.127Z,2.03
2022-08-03T17:44:58.607Z,2.00
2022-08-03T17:47:42.304Z,2.22
2022-08-03T17:50:23.397Z,2.22
2022-08-03T17:53:07.762Z,2.00
2022-08-03T17:55:59.093Z,1.83
2022-08-03T17:58:41.455Z,1.95
2022-08-03T18:01:59.498Z,1.98
2022-08-03T18:04:30.417Z,2.05
2022-08-03T18:07:11.671Z,2.10
2022-08-03T18:10:04.349Z,1.85
2022-08-03T18:12:51.757Z,1.63
2022-08-03T18:15:28.609Z,1.67
2022-08-03T18:18:02.694Z,2.00
2022-08-03T18:20:41.096Z,2.10
2022-08-03T18:23:20.439Z,1.85
2022-08-03T18:26:04.711Z,2.08
2022-08-03T18:28:38.321Z,1.67
2022-08-03T18:31:07.559Z,1.70
2022-08-03T18:34:17.260Z,2.30
2022-08-03T18:36:31.130Z,1.65
2022-08-03T18:39:04.098Z,1.70
2022-08-03T18:41:34.681Z,1.80
2022-08-03T18:44:09.633Z,2.03
2022-08-03T18:47:22.224Z,2.17
2022-08-03T18:50:02.644Z,2.13
2022-08-03T18:52:52.868Z,2.00
2022-08-03T18:55:33.655Z,2.38
2022-08-03T18:58:17.814Z,2.22
2022-08-03T19:00:53.982Z,2.28
2022-08-03T19:03:43.303Z,2.45
2022-08-03T19:06:20.278Z,2.42
2022-08-03T19:08:53.597Z,2.60
2022-08-03T19:12:25.970Z,3.40
2022-08-03T19:14:31.220Z,3.13
2022-08-03T19:17:21.094Z,3.05
2022-08-03T19:19:52.880Z,2.90
2022-08-03T19:22:22.195Z,2.33
2022-08-03T19:24:52.836Z,2.83
2022-08-03T19:27:27.060Z,2.55
2022-08-03T19:30:03.911Z,3.25
2022-08-03T19:32:36.682Z,2.63
2022-08-03T19:35:13.510Z,2.42
2022-08-03T19:37:47.803Z,2.85
2022-08-03T19:40:19.764Z,3.00
2022-08-03T19:42:55.032Z,2.70
2022-08-03T19:46:06.310Z,6.00
2022-08-03T19:48:31.243Z,3.80
2022-08-03T19:51:00.102Z,4.20
2022-08-03T19:53:35.450Z,4.75
2022-08-03T19:56:07.144Z,6.35
2022-08-03T19:58:36.700Z,6.97
2022-08-03T20:01:21.243Z,8.15
2022-08-03T20:03:52.557Z,9.13
2022-08-03T20:06:24.152Z,9.02
2022-08-03T20:08:55.276Z,9.88
2022-08-03T20:11:28.740Z,9.15
2022-08-03T20:13:59.587Z,8.88
2022-08-03T20:16:27.989Z,9.13
2022-08-03T20:18:57.951Z,8.57
2022-08-03T20:21:32.546Z,8.45
2022-08-03T20:24:24.720Z,7.72
2022-08-03T20:27:00.241Z,8.50
2022-08-03T20:30:06.073Z,7.82
2022-08-03T20:32:24.416Z,8.15
2022-08-03T20:34:54.382Z,9.05
2022-08-03T20:37:23.779Z,7.78
2022-08-03T20:39:52.021Z,7.13
2022-08-03T20:42:21.629Z,7.65
2022-08-03T20:45:05.054Z,8.18
2022-08-03T20:47:50.494Z,7.47
2022-08-03T20:50:22.072Z,7.78
2022-08-03T20:52:51.221Z,7.20
2022-08-03T20:55:20.363Z,7.97
2022-08-03T20:58:08.599Z,7.53
2022-08-03T21:00:36.868Z,7.35
2022-08-03T21:03:08.996Z,7.30
2022-08-03T21:05:51.315Z,8.48
2022-08-03T21:08:27.267Z,8.38
2022-08-03T21:10:59.244Z,8.32
2022-08-03T21:13:37.425Z,9.23
2022-08-03T21:16:14.145Z,9.38
2022-08-03T21:18:48.421Z,9.25
2022-08-03T21:21:21.411Z,8.45
2022-08-03T21:23:52.856Z,8.35
2022-08-03T21:26:27.107Z,7.78
2022-08-03T21:28:57.340Z,8.48
2022-08-03T21:31:27.013Z,8.68
2022-08-03T21:33:57.714Z,8.20
2022-08-03T21:36:29.617Z,8.98
2022-08-03T21:38:58.892Z,8.50
2022-08-03T21:41:29.220Z,8.68
2022-08-03T21:43:58.009Z,8.25
2022-08-03T21:46:29.980Z,9.18
2022-08-03T21:50:04.433Z,9.13
2022-08-03T21:51:55.392Z,9.23
2022-08-03T21:54:28.774Z,9.35
2022-08-03T21:57:02.774Z,9.85
2022-08-03T21:59:38.132Z,9.68
2022-08-03T22:02:22.665Z,10.23
2022-08-03T22:04:55.798Z,10.10
2022-08-03T22:07:29.895Z,9.43
2022-08-03T22:10:00.368Z,9.23
2022-08-03T22:12:31.500Z,9.00
2022-08-03T22:15:02.217Z,9.32
2022-08-03T22:17:55.240Z,9.77
2022-08-03T22:20:23.775Z,10.07
2022-08-03T22:22:57.254Z,8.70
2022-08-03T22:25:30.474Z,8.70
2022-08-03T22:28:01.337Z,8.93
2022-08-03T22:30:31.477Z,9.70
2022-08-03T22:33:01.239Z,9.15
2022-08-03T22:35:29.606Z,9.45
2022-08-03T22:38:00.375Z,8.90
2022-08-03T22:40:29.004Z,9.35
2022-08-03T22:42:58.890Z,9.57
2022-08-03T22:46:06.139Z,9.38
2022-08-03T22:48:17.883Z,8.77
2022-08-03T22:50:46.848Z,8.50
2022-08-03T22:53:23.469Z,9.30
2022-08-03T22:55:53.084Z,8.60
2022-08-03T22:58:21.763Z,8.90
2022-08-03T23:00:57.619Z,8.50
2022-08-03T23:03:59.356Z,8.33
2022-08-03T23:06:20.696Z,9.40
2022-08-03T23:08:51.571Z,8.85
2022-08-03T23:11:20.341Z,9.55
2022-08-03T23:13:54.336Z,9.07
2022-08-03T23:16:29.114Z,8.70
2022-08-03T23:19:16.558Z,8.23
2022-08-03T23:21:52.894Z,8.63
2022-08-03T23:24:30.273Z,8.97
2022-08-03T23:26:59.452Z,9.03
2022-08-03T23:29:30.291Z,8.97
2022-08-03T23:31:59.561Z,8.57
2022-08-03T23:34:46.795Z,9.40
2022-08-03T23:37:16.129Z,9.93
2022-08-03T23:39:48.197Z,9.10
2022-08-03T23:42:19.770Z,10.40
2022-08-03T23:44:50.360Z,10.23
2022-08-03T23:47:18.414Z,10.65
2022-08-03T23:49:46.553Z,10.47
2022-08-03T23:52:27.566Z,10.17
2022-08-03T23:55:16.211Z,10.67
2022-08-03T23:58:02.919Z,10.63
